NCAR-RAP Real-Time Weather Data

Output produced by METARs form (17 October 2018  17:04 UTC)
found at http://weather.rap.ucar.edu/surface/
 
RJFG 170900Z VRB01KT 9999 FEW035 SCT/// 18/15 Q1012
RJFG 170800Z VRB02KT 9999 FEW030 SCT050 BKN/// 19/15 Q1011
RJFG 170700Z VRB01KT 9999 FEW025 BKN050 20/15 Q1011
RJFG 170600Z VRB02KT 9999 FEW020 SCT050 BKN/// 21/15 Q1011
RJFG 170500Z VRB02KT 9999 FEW030 SCT050 BKN/// 21/16 Q1011
RJFG 170400Z VRB02KT 9999 FEW015 SCT025 BKN/// 20/15 Q1011
RJFG 170300Z VRB02KT 9999 FEW020 SCT025 BKN/// 20/16 Q1011
RJFG 170200Z 01003KT 300V090 9999 FEW020 BKN/// 21/16 Q1012
RJFG 170100Z VRB02KT 9999 FEW015 SCT020 BKN/// 20/16 Q1012
RJFG 170000Z 34003KT 290V050 9999 FEW015 SCT020 BKN/// 20/16 Q1012
RJFG 162330Z VRB02KT 9999 FEW015 BKN/// 20/17 Q1012
RJFG 160900Z 34003KT 270V030 9999 FEW010 SCT030 BKN090 19/18 Q1011
RJFG 160800Z VRB01KT 9999 FEW029 SCT080 BKN160 20/18 Q1011
RJFG 160700Z 33003KT 300V020 9999 -RA FEW020 SCT030 BKN050 20/17 Q1010
RJFG 160600Z 34003KT 290V030 9999 FEW020 SCT070 BKN160 21/17 Q1010
RJFG 160500Z 34004KT 300V050 9999 FEW005 SCT050 20/18 Q1010
RJFG 160400Z VRB03KT 9999 FEW015 SCT030 BKN050 18/17 Q1011
RJFG 160300Z 01005KT 300V070 9999 FEW004 SCT007 BKN035 18/17 Q1012
RJFG 160237Z VRB05KT 8000 FEW003 SCT005 BKN035 19/18 Q1012 RMK 1ST003 3ST005 5SC035 A2990
RJFG 160200Z 03005KT 340V090 8000 FEW002 SCT005 BKN010 18/18 Q1012
RJFG 160136Z 02005KT 320V090 6000 -SHRA FEW002 SCT005 BKN020 18/18 Q1012 RMK 1ST002 3ST005 5CU020 A2991
RJFG 160100Z 03005KT 310V090 4000 R31/1700D -RA BR FEW005 SCT020 BKN035 18/17 Q1013
RJFG 160000Z 05005KT 350V140 5000 -RA BR FEW007 SCT015 BKN040 18/18 Q1014
RJFG 152330Z 04005KT 330V100 6000 -SHRA FEW007 SCT010 BKN015 18/18 Q1013
RJFG 150900Z 06004KT 010V120 6000 -SHRA FEW002 SCT008 BKN012 18/18 Q1015
RJFG 150800Z VRB05KT 8000 FEW006 SCT025 BKN050 18/17 Q1015
RJFG 150700Z 04006KT 330V090 9999 FEW010 SCT025 BKN050 18/17 Q1015
RJFG 150600Z 04006KT 350V110 9999 FEW010 SCT020 BKN050 18/16 Q1015